Time;durP1;ratioP1;P1;durP2;ratioP2;P2;SDS_P1;SDS_P2;PMS_P1;PMS_P2;Temp;Humidity;BMP_temperature;BMP_pressure;BME280_temperature;BME280_humidity;BME280_pressure;Samples;Min_cycle;Max_cycle;Signal;HPM_P1;HPM_P2
2021/03/13 00:01:25;;;;;;;2.20;0.63;;;5.60;78.80;;;;;;4991092;28;20030;-66
2021/03/13 00:03:51;;;;;;;0.52;0.52;;;5.60;78.70;;;;;;4992646;28;20034;-67
2021/03/13 00:06:17;;;;;;;0.70;0.68;;;5.60;78.80;;;;;;4991950;28;20022;-67
2021/03/13 00:08:43;;;;;;;1.27;0.70;;;5.50;78.70;;;;;;4993503;28;20069;-67
2021/03/13 00:11:10;;;;;;;0.50;0.50;;;5.50;79.10;;;;;;4992345;28;20022;-67
2021/03/13 00:13:38;;;;;;;0.50;0.50;;;5.50;79.20;;;;;;4993289;28;20156;-67
2021/03/13 00:16:05;;;;;;;1.27;0.60;;;5.40;79.30;;;;;;4995871;28;20022;-67
2021/03/13 00:18:32;;;;;;;1.58;0.70;;;5.40;79.60;;;;;;4993883;28;20029;-67
2021/03/13 00:20:58;;;;;;;1.42;0.60;;;5.40;79.80;;;;;;4992304;28;20030;-67
2021/03/13 00:23:25;;;;;;;1.63;0.60;;;5.40;79.80;;;;;;4992171;28;20030;-67
2021/03/13 00:25:51;;;;;;;0.60;0.60;;;5.40;79.90;;;;;;4992211;28;20031;-66
2021/03/13 00:28:17;;;;;;;1.95;0.68;;;5.40;80.00;;;;;;4993537;28;20088;-69
2021/03/13 00:30:45;;;;;;;0.43;0.40;;;5.40;80.00;;;;;;4991828;28;20070;-67
2021/03/13 00:33:18;;;;;;;1.25;0.60;;;5.50;79.70;;;;;;4994309;28;20034;-67
2021/03/13 00:35:45;;;;;;;0.93;0.40;;;5.50;80.00;;;;;;4992242;28;20093;-67
2021/03/13 00:38:11;;;;;;;0.82;0.40;;;5.50;80.00;;;;;;5008125;28;20614;-67
2021/03/13 00:40:39;;;;;;;0.55;0.32;;;5.50;80.20;;;;;;4991341;28;20046;-66
2021/03/13 00:43:06;;;;;;;1.80;0.40;;;5.60;80.10;;;;;;4992243;28;20033;-67
2021/03/13 00:45:33;;;;;;;2.28;0.40;;;5.60;80.10;;;;;;5008315;28;20522;-67
2021/03/13 00:48:00;;;;;;;0.40;0.40;;;5.60;80.10;;;;;;5006644;28;20339;-67
2021/03/13 00:50:28;;;;;;;1.45;0.60;;;5.60;80.10;;;;;;4991903;28;20085;-67
2021/03/13 00:52:54;;;;;;;0.52;0.40;;;5.60;80.10;;;;;;4991905;28;20455;-67
2021/03/13 00:55:20;;;;;;;0.40;0.40;;;5.60;80.00;;;;;;4990356;28;20061;-67
2021/03/13 00:57:46;;;;;;;1.42;0.50;;;5.60;80.00;;;;;;4987909;28;20105;-68
2021/03/13 01:00:16;;;;;;;3.05;0.43;;;5.60;80.10;;;;;;4991538;28;20121;-68
2021/03/13 01:02:42;;;;;;;0.43;0.43;;;5.60;80.30;;;;;;4993950;28;20537;-68
2021/03/13 01:05:09;;;;;;;1.75;0.50;;;5.60;80.00;;;;;;4991538;28;20089;-67
2021/03/13 01:07:35;;;;;;;1.10;0.50;;;5.60;80.20;;;;;;4990797;28;20080;-67
2021/03/13 01:10:25;;;;;;;0.40;0.40;;;5.60;80.20;;;;;;4991445;28;20573;-67
2021/03/13 01:12:51;;;;;;;0.55;0.55;;;5.60;80.20;;;;;;4987226;28;20041;-67
2021/03/13 01:15:20;;;;;;;0.57;0.52;;;5.60;80.20;;;;;;4990902;28;20049;-68
2021/03/13 01:17:46;;;;;;;0.50;0.50;;;5.60;80.30;;;;;;4992199;28;20380;-66
2021/03/13 01:20:14;;;;;;;1.63;0.57;;;5.60;80.50;;;;;;4992718;28;20040;-68
2021/03/13 01:22:41;;;;;;;0.50;0.50;;;5.60;80.20;;;;;;4991008;28;20031;-68
2021/03/13 01:25:08;;;;;;;0.52;0.50;;;5.60;80.50;;;;;;4990816;28;20061;-67
2021/03/13 01:27:34;;;;;;;1.70;0.60;;;5.60;80.20;;;;;;4993241;28;20022;-67
2021/03/13 01:30:00;;;;;;;2.25;0.73;;;5.60;80.30;;;;;;4990342;28;20031;-67
2021/03/13 01:32:26;;;;;;;0.52;0.52;;;5.60;80.50;;;;;;4991253;28;20062;-68
2021/03/13 01:34:51;;;;;;;1.08;0.63;;;5.60;80.50;;;;;;4990472;28;20367;-68
2021/03/13 01:37:19;;;;;;;0.73;0.60;;;5.60;80.30;;;;;;4995442;28;20030;-67
2021/03/13 01:39:45;;;;;;;1.50;0.75;;;5.60;80.30;;;;;;4996649;28;20073;-67
2021/03/13 01:42:11;;;;;;;0.60;0.57;;;5.60;80.40;;;;;;4990844;28;20034;-66
2021/03/13 01:44:37;;;;;;;1.15;0.60;;;5.60;80.40;;;;;;4990080;28;20180;-66
2021/03/13 01:47:03;;;;;;;1.23;0.50;;;5.70;80.40;;;;;;4990855;28;20034;-67
2021/03/13 01:49:31;;;;;;;1.17;0.60;;;5.70;80.40;;;;;;4990736;28;20093;-67
2021/03/13 01:51:57;;;;;;;0.70;0.70;;;5.70;80.30;;;;;;4991181;28;20121;-66
2021/03/13 01:54:23;;;;;;;1.08;0.50;;;5.70;80.30;;;;;;4990488;28;20033;-67
2021/03/13 01:56:50;;;;;;;0.50;0.50;;;5.70;80.10;;;;;;4988597;28;20479;-67
2021/03/13 01:59:20;;;;;;;1.42;0.60;;;5.80;80.20;;;;;;4990270;28;20026;-67
2021/03/13 02:01:46;;;;;;;1.75;0.57;;;5.70;80.20;;;;;;4990271;28;20038;-67
2021/03/13 02:04:14;;;;;;;1.00;0.65;;;5.80;80.30;;;;;;4996455;28;20049;-67
2021/03/13 02:06:40;;;;;;;0.50;0.50;;;5.80;80.50;;;;;;4996099;28;20030;-66
2021/03/13 02:09:19;;;;;;;0.50;0.50;;;5.80;80.40;;;;;;4990095;28;20042;-66
2021/03/13 02:11:53;;;;;;;2.38;0.60;;;5.80;80.50;;;;;;4990561;28;20165;-67
2021/03/13 02:14:28;;;;;;;4.25;0.70;;;5.80;80.50;;;;;;4990319;28;20026;-67
2021/03/13 02:17:02;;;;;;;1.80;0.77;;;5.80;80.60;;;;;;4990802;28;20034;-65
2021/03/13 02:19:46;;;;;;;1.13;0.52;;;5.80;80.70;;;;;;4989355;28;20022;-67
2021/03/13 02:22:14;;;;;;;1.25;0.60;;;5.80;80.60;;;;;;4990713;28;20038;-67
2021/03/13 02:24:52;;;;;;;2.05;0.60;;;5.80;80.60;;;;;;4989737;28;20026;-67
2021/03/13 02:27:22;;;;;;;1.05;0.60;;;5.90;80.90;;;;;;4990586;28;20383;-67
2021/03/13 02:29:52;;;;;;;1.42;0.70;;;5.80;80.70;;;;;;4990400;28;20513;-68
2021/03/13 02:32:27;;;;;;;0.88;0.60;;;5.90;80.80;;;;;;4990683;28;20402;-67
2021/03/13 02:35:09;;;;;;;0.60;0.60;;;5.90;80.70;;;;;;4990119;28;20037;-67
2021/03/13 02:37:40;;;;;;;1.20;0.68;;;5.90;80.90;;;;;;4997080;28;20030;-67
2021/03/13 02:40:08;;;;;;;1.05;0.63;;;5.90;80.70;;;;;;4989681;28;20023;-67
2021/03/13 02:42:43;;;;;;;0.60;0.60;;;5.90;80.80;;;;;;4990241;28;20130;-67
2021/03/13 02:45:10;;;;;;;0.63;0.52;;;5.90;80.80;;;;;;4989876;28;20089;-67
2021/03/13 02:47:40;;;;;;;0.40;0.40;;;6.00;80.70;;;;;;4986589;28;20117;-67
2021/03/13 02:50:07;;;;;;;2.80;0.70;;;6.00;81.20;;;;;;4972751;28;20054;-67
2021/03/13 02:52:34;;;;;;;1.75;0.77;;;6.00;80.40;;;;;;4995140;28;20026;-66
2021/03/13 02:55:01;;;;;;;1.70;0.80;;;6.00;80.30;;;;;;4989445;28;20026;-67
2021/03/13 02:57:27;;;;;;;1.10;0.60;;;6.00;80.30;;;;;;4991615;28;20118;-67
2021/03/13 02:59:53;;;;;;;1.55;0.70;;;6.10;80.20;;;;;;4990931;28;20054;-65
2021/03/13 03:02:20;;;;;;;1.33;0.70;;;6.00;80.10;;;;;;4990055;28;20062;-66
2021/03/13 03:04:49;;;;;;;0.90;0.60;;;6.10;80.10;;;;;;4998013;28;20116;-67
2021/03/13 03:07:17;;;;;;;1.00;0.90;;;6.10;80.20;;;;;;5002881;28;20069;-67
2021/03/13 03:09:43;;;;;;;1.60;0.75;;;6.10;80.10;;;;;;4993987;28;20046;-68
2021/03/13 03:12:11;;;;;;;1.05;0.80;;;6.10;80.10;;;;;;4989334;28;20053;-67
2021/03/13 03:14:40;;;;;;;1.52;0.77;;;6.10;80.00;;;;;;4990319;28;20430;-67
2021/03/13 03:17:07;;;;;;;1.00;0.60;;;6.10;80.60;;;;;;4994593;28;20022;-67
2021/03/13 03:19:34;;;;;;;2.45;1.00;;;6.10;80.00;;;;;;4998004;28;20054;-68
2021/03/13 03:22:01;;;;;;;1.40;0.70;;;6.10;80.00;;;;;;4993146;28;20109;-67
2021/03/13 03:24:29;;;;;;;1.13;0.73;;;6.10;79.90;;;;;;4999186;28;20061;-68
2021/03/13 03:26:56;;;;;;;1.13;0.80;;;6.20;79.90;;;;;;4989572;28;20317;-67
2021/03/13 03:29:22;;;;;;;1.10;0.70;;;6.20;80.10;;;;;;4985892;28;20450;-67
2021/03/13 03:31:48;;;;;;;1.58;0.82;;;6.20;80.00;;;;;;4993252;28;20056;-67
2021/03/13 03:34:13;;;;;;;4.15;0.80;;;6.20;79.90;;;;;;4980621;28;20494;-67
2021/03/13 03:36:39;;;;;;;2.40;0.80;;;6.20;79.80;;;;;;4994205;28;20026;-67
2021/03/13 03:39:05;;;;;;;3.08;1.00;;;6.20;79.80;;;;;;4992979;28;20125;-68
2021/03/13 03:41:33;;;;;;;2.92;1.23;;;6.20;79.80;;;;;;4994225;28;20494;-66
2021/03/13 03:44:08;;;;;;;0.70;0.70;;;6.20;80.00;;;;;;5004065;28;20027;-67
2021/03/13 03:46:38;;;;;;;0.95;0.68;;;6.20;80.00;;;;;;4993711;28;20029;-67
2021/03/13 03:49:06;;;;;;;2.38;1.10;;;6.20;79.90;;;;;;4989270;28;20022;-67
2021/03/13 03:51:33;;;;;;;6.13;0.95;;;6.20;80.10;;;;;;4994528;28;20540;-67
2021/03/13 03:54:04;;;;;;;1.80;0.70;;;6.20;80.10;;;;;;4983094;28;20065;-66
2021/03/13 03:56:30;;;;;;;1.70;0.82;;;6.20;80.60;;;;;;4993089;28;20033;-67
2021/03/13 03:58:56;;;;;;;1.98;0.70;;;6.20;80.00;;;;;;4993659;28;20022;-67
2021/03/13 04:01:25;;;;;;;2.42;0.80;;;6.20;80.10;;;;;;5003378;28;20040;-67
2021/03/13 04:03:55;;;;;;;2.80;1.02;;;6.20;80.00;;;;;;5006201;28;20019;-67
2021/03/13 04:06:21;;;;;;;1.10;0.80;;;6.20;80.10;;;;;;4986575;28;20022;-68
2021/03/13 04:08:52;;;;;;;3.85;1.00;;;6.30;80.10;;;;;;4992452;28;20443;-66
2021/03/13 04:11:20;;;;;;;2.92;0.88;;;6.30;80.00;;;;;;4992409;28;20424;-67
2021/03/13 04:13:51;;;;;;;2.60;1.17;;;6.30;79.90;;;;;;4991862;28;20479;-67
2021/03/13 04:16:17;;;;;;;4.20;0.80;;;6.40;79.90;;;;;;4988532;28;20069;-67
2021/03/13 04:18:43;;;;;;;1.25;0.70;;;6.40;79.80;;;;;;4992746;28;20054;-67
2021/03/13 04:21:10;;;;;;;5.85;1.10;;;6.40;79.70;;;;;;4997952;28;20036;-67
2021/03/13 04:23:37;;;;;;;1.20;0.50;;;6.40;79.60;;;;;;4997133;28;20068;-67
2021/03/13 04:26:05;;;;;;;1.95;0.80;;;6.50;79.50;;;;;;4992946;28;20044;-68
2021/03/13 04:28:31;;;;;;;2.50;0.82;;;6.50;79.50;;;;;;4992205;28;20538;-67
2021/03/13 04:30:57;;;;;;;2.95;1.20;;;6.50;79.40;;;;;;4992773;28;20125;-67
2021/03/13 04:33:23;;;;;;;2.90;0.80;;;6.60;79.30;;;;;;4992392;28;20030;-67
2021/03/13 04:35:52;;;;;;;3.83;1.10;;;6.60;79.30;;;;;;4992255;28;20038;-67
2021/03/13 04:38:19;;;;;;;2.15;0.80;;;6.60;79.20;;;;;;4992659;28;20041;-67
2021/03/13 04:40:46;;;;;;;4.20;0.93;;;6.60;79.20;;;;;;4994599;28;20018;-67
2021/03/13 04:43:12;;;;;;;2.50;0.60;;;6.60;79.20;;;;;;4992200;28;20088;-67
2021/03/13 04:45:39;;;;;;;4.00;0.98;;;6.60;79.30;;;;;;5016861;23;20042;-66
2021/03/13 04:48:05;;;;;;;4.53;0.80;;;6.60;79.30;;;;;;5015103;28;20080;-66
2021/03/13 04:50:31;;;;;;;4.70;1.02;;;6.70;79.40;;;;;;5021414;28;20022;-67
2021/03/13 04:52:57;;;;;;;2.40;0.98;;;6.70;79.50;;;;;;5029899;28;20033;-67
2021/03/13 04:55:22;;;;;;;2.40;0.65;;;6.70;79.60;;;;;;5028984;28;20029;-67
2021/03/13 04:57:48;;;;;;;4.57;0.98;;;6.70;79.80;;;;;;5027863;28;20034;-66
2021/03/13 05:00:15;;;;;;;3.03;0.80;;;6.60;79.80;;;;;;5030566;28;20075;-66
2021/03/13 05:02:41;;;;;;;1.58;0.80;;;6.70;79.90;;;;;;5019267;28;20034;-66
2021/03/13 05:05:08;;;;;;;3.00;0.80;;;6.70;79.70;;;;;;5026487;28;20367;-67
2021/03/13 05:07:34;;;;;;;2.05;0.90;;;6.70;79.70;;;;;;5019096;28;20041;-66
2021/03/13 05:10:01;;;;;;;4.78;0.98;;;6.70;79.70;;;;;;5021681;28;20025;-67
2021/03/13 05:12:26;;;;;;;2.65;0.90;;;6.70;79.60;;;;;;5023163;28;20026;-67
2021/03/13 05:14:52;;;;;;;2.60;0.77;;;6.80;79.60;;;;;;5018167;28;20076;-67
2021/03/13 05:17:19;;;;;;;3.20;0.98;;;6.80;79.40;;;;;;5022035;28;20049;-66
2021/03/13 05:19:44;;;;;;;1.90;0.73;;;6.80;79.30;;;;;;5017684;28;20440;-66
2021/03/13 05:22:10;;;;;;;2.58;1.02;;;6.80;79.10;;;;;;5030503;28;20045;-67
2021/03/13 05:24:36;;;;;;;4.20;0.98;;;6.80;79.00;;;;;;5023068;28;20029;-66
2021/03/13 05:27:03;;;;;;;1.52;0.50;;;6.90;78.90;;;;;;5022087;28;20029;-66
2021/03/13 05:29:29;;;;;;;2.80;0.75;;;6.90;78.90;;;;;;5029997;28;20048;-66
2021/03/13 05:31:54;;;;;;;4.47;1.00;;;6.90;78.70;;;;;;5025870;28;20034;-66
2021/03/13 05:34:20;;;;;;;1.20;0.77;;;6.90;78.60;;;;;;5010265;28;20030;-66
2021/03/13 05:36:46;;;;;;;4.28;0.95;;;6.90;78.40;;;;;;5011429;28;20029;-66
2021/03/13 05:39:11;;;;;;;3.28;1.10;;;7.00;78.30;;;;;;5012691;28;20045;-67
2021/03/13 05:41:38;;;;;;;1.80;0.88;;;7.00;78.20;;;;;;5028655;28;20028;-67
2021/03/13 05:44:07;;;;;;;2.50;0.80;;;7.00;78.00;;;;;;5028554;28;20052;-67
2021/03/13 05:46:35;;;;;;;2.03;0.70;;;7.00;77.90;;;;;;5027429;28;20040;-67
2021/03/13 05:49:11;;;;;;;1.42;0.60;;;7.00;77.80;;;;;;5029210;28;20033;-67
2021/03/13 05:51:47;;;;;;;2.03;0.80;;;6.90;77.70;;;;;;5012813;28;20074;-68
2021/03/13 05:54:15;;;;;;;1.90;0.77;;;6.90;77.70;;;;;;5028090;28;20017;-67
2021/03/13 05:56:41;;;;;;;1.40;0.85;;;7.00;77.60;;;;;;5021819;28;20022;-67
2021/03/13 05:59:08;;;;;;;2.65;0.75;;;7.00;77.60;;;;;;5013864;28;20041;-67
2021/03/13 06:01:34;;;;;;;0.65;0.63;;;7.00;77.40;;;;;;5012375;28;20049;-66
2021/03/13 06:04:00;;;;;;;2.47;0.70;;;7.10;77.40;;;;;;5026312;28;20029;-66
2021/03/13 06:06:26;;;;;;;0.85;0.65;;;7.10;77.30;;;;;;5024196;28;20113;-66
2021/03/13 06:08:53;;;;;;;2.35;0.77;;;7.10;77.10;;;;;;5010533;28;20088;-66
2021/03/13 06:11:22;;;;;;;0.63;0.60;;;7.10;77.10;;;;;;5025853;28;20029;-67
2021/03/13 06:13:48;;;;;;;2.55;0.90;;;7.20;77.00;;;;;;5021438;28;20030;-66
2021/03/13 06:16:14;;;;;;;3.08;0.77;;;7.20;76.80;;;;;;5018026;28;20048;-68
2021/03/13 06:18:49;;;;;;;3.05;0.88;;;7.30;76.70;;;;;;5022184;28;20057;-66
2021/03/13 06:21:32;;;;;;;1.20;0.70;;;7.30;76.50;;;;;;5029076;28;20021;-66
2021/03/13 06:23:59;;;;;;;4.30;0.63;;;7.30;76.40;;;;;;5028129;28;20559;-66
2021/03/13 06:26:27;;;;;;;1.48;0.70;;;7.40;76.10;;;;;;5015445;28;20053;-66
2021/03/13 06:28:54;;;;;;;2.20;0.70;;;7.50;75.90;;;;;;5024858;28;20496;-66
2021/03/13 06:31:25;;;;;;;6.07;1.08;;;7.50;75.70;;;;;;5025631;28;20085;-67
2021/03/13 06:33:51;;;;;;;7.00;3.50;;;7.60;75.50;;;;;;5027974;28;20397;-66
2021/03/13 06:36:22;;;;;;;2.65;0.60;;;7.70;75.30;;;;;;5014139;28;20050;-66
2021/03/13 06:38:48;;;;;;;3.20;0.50;;;7.70;74.90;;;;;;5028748;28;20041;-67
2021/03/13 06:41:23;;;;;;;2.67;0.70;;;7.80;74.80;;;;;;5025075;28;20022;-67
2021/03/13 06:43:55;;;;;;;2.17;0.60;;;7.80;74.30;;;;;;5017167;28;20084;-67
2021/03/13 06:46:21;;;;;;;1.30;0.52;;;7.80;74.00;;;;;;5019778;28;20041;-67
2021/03/13 06:48:50;;;;;;;1.00;0.50;;;7.80;73.80;;;;;;5023849;28;20501;-66
2021/03/13 06:51:32;;;;;;;0.75;0.60;;;7.90;73.70;;;;;;5015846;28;20025;-66
2021/03/13 06:54:12;;;;;;;0.63;0.47;;;7.90;73.60;;;;;;5025092;28;20038;-65
2021/03/13 06:56:59;;;;;;;1.95;0.77;;;8.00;73.30;;;;;;5028059;28;20084;-65
2021/03/13 06:59:35;;;;;;;3.40;1.02;;;8.00;73.20;;;;;;5026701;28;20093;-66
2021/03/13 07:02:05;;;;;;;2.13;0.63;;;8.10;72.60;;;;;;5023295;28;20032;-66
2021/03/13 07:04:35;;;;;;;3.47;0.70;;;8.10;72.70;;;;;;5025250;28;20393;-66
2021/03/13 07:07:01;;;;;;;2.45;0.60;;;8.10;72.40;;;;;;5035509;28;20446;-66
2021/03/13 07:09:51;;;;;;;1.73;0.60;;;8.20;72.10;;;;;;5028494;28;20026;-67
2021/03/13 07:12:39;;;;;;;1.95;0.60;;;8.20;72.20;;;;;;5034619;28;20059;-66
2021/03/13 07:15:19;;;;;;;1.50;0.60;;;8.20;71.70;;;;;;5029074;28;20021;-66
2021/03/13 07:17:50;;;;;;;1.75;0.55;;;8.30;71.20;;;;;;5038155;28;20043;-67
2021/03/13 07:20:18;;;;;;;3.30;0.70;;;8.40;71.10;;;;;;5031199;28;20022;-67
2021/03/13 07:22:48;;;;;;;4.85;0.93;;;8.40;70.80;;;;;;5034347;28;20033;-66
2021/03/13 07:25:17;;;;;;;2.78;0.80;;;8.50;70.60;;;;;;5022834;28;20033;-68
2021/03/13 07:27:44;;;;;;;2.78;0.63;;;8.60;70.00;;;;;;5031183;28;20029;-67
2021/03/13 07:30:13;;;;;;;3.75;0.90;;;8.70;69.60;;;;;;5024978;28;20030;-67
2021/03/13 07:32:43;;;;;;;4.28;0.88;;;8.70;68.80;;;;;;5036889;28;20401;-67
2021/03/13 07:35:11;;;;;;;2.67;1.00;;;8.80;69.10;;;;;;5032721;28;20100;-66
2021/03/13 07:37:40;;;;;;;2.45;0.95;;;8.90;68.10;;;;;;5024767;28;20117;-67
2021/03/13 07:40:11;;;;;;;3.00;0.85;;;9.10;67.70;;;;;;5037848;28;20021;-67
2021/03/13 07:42:37;;;;;;;2.47;1.17;;;9.20;67.40;;;;;;5037439;28;20127;-67
2021/03/13 07:45:03;;;;;;;4.43;0.90;;;9.50;66.70;;;;;;5025789;28;20053;-66
2021/03/13 07:47:29;;;;;;;2.03;0.75;;;9.90;66.20;;;;;;5037475;28;20033;-67
2021/03/13 07:49:55;;;;;;;2.13;0.93;;;10.00;65.00;;;;;;5035483;28;20029;-66
2021/03/13 07:52:21;;;;;;;3.90;0.98;;;10.10;65.20;;;;;;5026022;28;20044;-66
2021/03/13 07:54:52;;;;;;;3.08;1.05;;;10.30;63.30;;;;;;5031415;28;20056;-66
2021/03/13 07:57:20;;;;;;;2.55;0.70;;;10.30;63.00;;;;;;5030942;28;20026;-67
2021/03/13 07:59:48;;;;;;;0.73;0.50;;;10.30;63.00;;;;;;5035644;28;20441;-66
2021/03/13 08:02:32;;;;;;;3.22;0.77;;;10.30;63.40;;;;;;5030056;28;20490;-66
2021/03/13 08:04:59;;;;;;;1.73;0.60;;;10.30;62.10;;;;;;5019732;28;20025;-66
2021/03/13 08:07:27;;;;;;;4.90;0.85;;;10.30;62.40;;;;;;5015819;28;20044;-67
2021/03/13 08:09:53;;;;;;;1.77;0.60;;;10.40;62.10;;;;;;5028318;28;20120;-67
2021/03/13 08:12:41;;;;;;;1.77;0.60;;;10.30;62.60;;;;;;5030539;28;20037;-67
2021/03/13 08:15:29;;;;;;;3.42;1.08;;;10.30;62.30;;;;;;5026943;28;20032;-67
2021/03/13 08:17:55;;;;;;;0.70;0.63;;;10.20;62.10;;;;;;5017932;28;20022;-66
2021/03/13 08:20:29;;;;;;;3.75;0.85;;;10.20;62.40;;;;;;5016827;28;20029;-67
2021/03/13 08:23:13;;;;;;;5.45;1.05;;;10.20;62.80;;;;;;5027888;28;20056;-65
2021/03/13 08:25:56;;;;;;;2.17;0.70;;;10.10;62.70;;;;;;5030532;28;20369;-66
2021/03/13 08:28:47;;;;;;;2.92;0.60;;;10.20;62.10;;;;;;5029748;28;20077;-67
2021/03/13 08:31:21;;;;;;;4.13;0.73;;;10.20;61.60;;;;;;5016371;28;20079;-66
2021/03/13 08:33:53;;;;;;;3.35;1.10;;;10.40;61.10;;;;;;5017388;28;20441;-65
2021/03/13 08:36:24;;;;;;;1.23;0.60;;;10.40;60.90;;;;;;5025891;28;20025;-67
2021/03/13 08:39:10;;;;;;;1.38;0.50;;;10.50;60.80;;;;;;5031314;28;20037;-68
2021/03/13 08:41:45;;;;;;;1.60;0.60;;;10.50;60.10;;;;;;5024307;28;20033;-66
2021/03/13 08:44:27;;;;;;;2.97;0.50;;;10.50;59.60;;;;;;5020516;28;20108;-68
2021/03/13 08:47:05;;;;;;;3.90;0.60;;;10.50;59.50;;;;;;5032811;28;20032;-67
2021/03/13 08:49:31;;;;;;;2.33;0.60;;;10.50;59.70;;;;;;5032641;28;20392;-66
2021/03/13 08:52:09;;;;;;;4.22;0.77;;;10.50;59.30;;;;;;5031929;28;20029;-67
2021/03/13 08:54:37;;;;;;;2.20;0.60;;;10.50;58.80;;;;;;5023522;28;20382;-66
2021/03/13 08:57:14;;;;;;;0.80;0.52;;;10.50;59.40;;;;;;5031231;28;20029;-66
2021/03/13 08:59:42;;;;;;;1.02;0.50;;;10.50;59.90;;;;;;5031975;28;20614;-66
2021/03/13 09:02:13;;;;;;;1.00;0.50;;;10.40;60.90;;;;;;5030981;28;20026;-66
2021/03/13 09:04:44;;;;;;;1.75;0.43;;;10.40;59.50;;;;;;5029224;28;20428;-68
2021/03/13 09:07:11;;;;;;;0.95;0.52;;;10.50;58.50;;;;;;5031409;28;20025;-67
2021/03/13 09:09:39;;;;;;;2.60;1.15;;;10.50;58.10;;;;;;5032021;28;20311;-67
2021/03/13 09:12:08;;;;;;;1.75;0.52;;;10.50;58.50;;;;;;5030431;28;20029;-66
2021/03/13 09:14:36;;;;;;;1.33;0.47;;;10.50;58.20;;;;;;5016865;28;20120;-66
2021/03/13 09:17:16;;;;;;;0.35;0.35;;;10.50;58.60;;;;;;5031543;28;20132;-66
2021/03/13 09:19:44;;;;;;;4.95;0.65;;;10.50;58.00;;;;;;5030678;28;20043;-68
2021/03/13 09:22:13;;;;;;;1.95;0.60;;;10.60;57.80;;;;;;5031603;28;20462;-66
2021/03/13 09:24:39;;;;;;;0.95;0.50;;;10.70;57.40;;;;;;5030532;28;20055;-67
2021/03/13 09:27:05;;;;;;;0.95;0.60;;;10.80;56.20;;;;;;5031555;28;20029;-67
2021/03/13 09:29:33;;;;;;;3.58;0.52;;;10.90;56.20;;;;;;5030809;28;20037;-66
2021/03/13 09:32:00;;;;;;;1.33;0.50;;;11.00;56.30;;;;;;5029665;28;20068;-67
2021/03/13 09:34:27;;;;;;;0.88;0.57;;;11.10;56.10;;;;;;5030677;28;20030;-67
2021/03/13 09:36:52;;;;;;;0.95;0.40;;;11.10;55.10;;;;;;5013365;28;20022;-66
2021/03/13 09:39:28;;;;;;;2.33;0.60;;;11.30;55.20;;;;;;5028013;28;20105;-67
2021/03/13 09:42:08;;;;;;;2.33;0.55;;;11.40;54.40;;;;;;5028839;28;20125;-66
2021/03/13 09:44:55;;;;;;;2.40;0.63;;;11.50;53.50;;;;;;5021595;28;20091;-66
2021/03/13 09:47:22;;;;;;;2.63;0.43;;;11.50;53.40;;;;;;5011074;28;20124;-67
2021/03/13 09:49:55;;;;;;;1.77;0.65;;;11.50;53.50;;;;;;5011623;28;20025;-67
2021/03/13 09:52:49;;;;;;;2.83;0.95;;;11.40;53.80;;;;;;5028519;28;20029;-69
2021/03/13 09:55:18;;;;;;;3.15;0.63;;;11.30;53.70;;;;;;5020636;28;20068;-67
2021/03/13 09:57:46;;;;;;;1.25;0.60;;;11.20;53.80;;;;;;5030167;28;20030;-68
2021/03/13 10:00:38;;;;;;;2.13;0.55;;;11.20;54.00;;;;;;5013642;28;20128;-67
2021/03/13 10:03:11;;;;;;;1.13;0.52;;;11.10;53.80;;;;;;5022611;28;20032;-66
2021/03/13 10:05:37;;;;;;;2.47;0.52;;;11.00;53.60;;;;;;5026379;28;20375;-67
2021/03/13 10:08:13;;;;;;;3.22;0.98;;;11.00;54.70;;;;;;5026915;28;20021;-66
2021/03/13 10:10:42;;;;;;;3.50;0.70;;;11.00;54.50;;;;;;5030838;28;20028;-68
2021/03/13 10:13:08;;;;;;;1.98;0.63;;;10.90;54.40;;;;;;5023496;28;20104;-67
2021/03/13 10:15:36;;;;;;;4.72;0.65;;;10.80;54.20;;;;;;5066247;23;20555;-68
2021/03/13 10:18:14;;;;;;;1.20;0.40;;;10.80;54.40;;;;;;5022534;28;20045;-67
2021/03/13 10:20:53;;;;;;;3.95;0.40;;;10.80;55.40;;;;;;4987951;28;20120;-67
2021/03/13 10:23:37;;;;;;;0.70;0.43;;;10.90;54.50;;;;;;5000713;28;20084;-68
2021/03/13 10:26:14;;;;;;;0.98;0.40;;;10.90;54.40;;;;;;4999755;28;20029;-67
2021/03/13 10:28:45;;;;;;;3.38;0.50;;;10.90;54.50;;;;;;4993130;28;20033;-69
2021/03/13 10:31:19;;;;;;;3.72;1.05;;;10.90;54.30;;;;;;4987473;28;20025;-67
2021/03/13 10:33:47;;;;;;;1.80;0.60;;;10.80;54.40;;;;;;4993476;28;20599;-67
2021/03/13 10:36:19;;;;;;;3.22;0.63;;;10.80;54.50;;;;;;4989582;28;20034;-66
2021/03/13 10:38:47;;;;;;;1.48;0.50;;;10.80;54.40;;;;;;4992063;28;20049;-67
2021/03/13 10:41:22;;;;;;;4.30;0.60;;;10.90;54.80;;;;;;4995611;28;20117;-66
2021/03/13 10:43:51;;;;;;;2.85;0.70;;;10.90;54.90;;;;;;4998949;28;20040;-65
2021/03/13 10:46:24;;;;;;;0.30;0.30;;;10.90;54.50;;;;;;4988677;28;20066;-68
2021/03/13 10:48:49;;;;;;;1.30;0.50;;;11.00;54.40;;;;;;4998103;28;20092;-67
2021/03/13 10:51:22;;;;;;;1.77;0.50;;;11.00;54.40;;;;;;4994170;28;20037;-68
2021/03/13 10:53:48;;;;;;;0.35;0.35;;;11.00;54.60;;;;;;4994151;28;20121;-68
2021/03/13 10:56:15;;;;;;;2.95;0.55;;;11.00;54.70;;;;;;4983353;28;20054;-69
2021/03/13 10:58:57;;;;;;;1.85;0.50;;;11.00;54.20;;;;;;4984059;28;20022;-70
2021/03/13 11:01:24;;;;;;;2.08;0.68;;;11.00;54.50;;;;;;5042812;22;20045;-65
2021/03/13 11:03:53;;;;;;;0.75;0.40;;;11.00;54.70;;;;;;5051658;28;20056;-66
2021/03/13 11:06:34;;;;;;;2.42;0.95;;;11.00;54.20;;;;;;5048548;28;20029;-65
2021/03/13 11:09:02;;;;;;;1.15;0.50;;;11.00;54.50;;;;;;5054305;28;20031;-65
2021/03/13 11:11:28;;;;;;;1.77;0.63;;;11.00;54.70;;;;;;5059892;28;20511;-66
2021/03/13 11:13:54;;;;;;;1.98;0.70;;;11.10;54.40;;;;;;5058880;28;20039;-66
2021/03/13 11:16:23;;;;;;;4.32;0.52;;;11.00;54.60;;;;;;5056179;28;20112;-68
2021/03/13 11:18:59;;;;;;;3.58;0.57;;;11.10;54.40;;;;;;5058378;28;20032;-66
2021/03/13 11:21:25;;;;;;;5.55;0.85;;;11.00;53.70;;;;;;5059109;28;20388;-66
2021/03/13 11:23:52;;;;;;;3.47;0.98;;;11.00;53.70;;;;;;5059503;28;20028;-65
2021/03/13 11:26:19;;;;;;;11.80;1.00;;;11.00;54.40;;;;;;5046920;28;20651;-65
2021/03/13 11:28:45;;;;;;;2.45;0.70;;;11.00;54.50;;;;;;5059455;28;20400;-65
2021/03/13 11:31:11;;;;;;;1.98;0.63;;;11.00;54.40;;;;;;5058378;28;20025;-66
2021/03/13 11:33:37;;;;;;;10.93;1.42;;;10.90;54.40;;;;;;5051004;28;20028;-65
2021/03/13 11:36:03;;;;;;;3.78;0.50;;;11.00;54.80;;;;;;5039487;28;20481;-66
2021/03/13 11:38:30;;;;;;;1.58;0.70;;;11.00;54.70;;;;;;5050952;28;20059;-66
2021/03/13 11:40:56;;;;;;;1.08;0.40;;;11.00;54.20;;;;;;5039539;28;20033;-65
2021/03/13 11:43:22;;;;;;;1.13;0.50;;;11.00;53.90;;;;;;5039421;28;20477;-67
2021/03/13 11:45:48;;;;;;;1.20;0.90;;;11.00;53.80;;;;;;5038991;28;20396;-64
2021/03/13 11:48:14;;;;;;;1.08;0.50;;;11.00;54.10;;;;;;5039113;28;20032;-66
2021/03/13 11:50:40;;;;;;;2.95;0.88;;;11.00;54.20;;;;;;5036339;28;20025;-65
2021/03/13 11:53:05;;;;;;;2.58;1.23;;;11.00;54.70;;;;;;5036262;28;20033;-67
2021/03/13 11:55:31;;;;;;;5.22;0.63;;;11.10;54.50;;;;;;5052068;28;20025;-65
2021/03/13 11:57:56;;;;;;;1.17;0.63;;;11.10;54.60;;;;;;5055557;28;20025;-65
2021/03/13 12:00:22;;;;;;;1.73;0.50;;;11.00;54.70;;;;;;5055913;28;20429;-66
2021/03/13 12:02:48;;;;;;;1.33;0.55;;;11.00;54.90;;;;;;5047221;28;20060;-66
2021/03/13 12:05:14;;;;;;;2.47;0.57;;;10.90;55.30;;;;;;5055289;28;20553;-66
2021/03/13 12:07:40;;;;;;;3.60;1.30;;;10.80;56.60;;;;;;5055681;28;20033;-66
2021/03/13 12:10:07;;;;;;;1.27;0.85;;;10.70;57.00;;;;;;5055833;28;20035;-66
2021/03/13 12:12:33;;;;;;;0.98;0.40;;;10.60;57.30;;;;;;5054783;28;20116;-65
2021/03/13 12:14:59;;;;;;;1.67;0.50;;;10.50;58.70;;;;;;5055017;28;20107;-66
2021/03/13 12:17:25;;;;;;;0.88;0.40;;;10.40;58.80;;;;;;5056842;28;20070;-66
2021/03/13 12:19:50;;;;;;;0.47;0.30;;;10.40;59.00;;;;;;5040379;28;20075;-65
2021/03/13 12:22:17;;;;;;;0.95;0.40;;;10.40;59.00;;;;;;5044173;28;20025;-66
2021/03/13 12:24:43;;;;;;;0.82;0.50;;;10.40;58.30;;;;;;5050372;28;20033;-65
2021/03/13 12:27:09;;;;;;;1.95;0.50;;;10.50;58.20;;;;;;5036935;28;20028;-67
2021/03/13 12:29:35;;;;;;;15.43;1.50;;;10.50;58.30;;;;;;5035678;28;20124;-65
2021/03/13 12:32:01;;;;;;;18.67;1.67;;;10.50;58.50;;;;;;5047118;28;20115;-66
2021/03/13 12:34:27;;;;;;;50.45;3.35;;;10.50;58.10;;;;;;5046415;28;20184;-66
2021/03/13 12:36:52;;;;;;;5.15;0.70;;;10.60;58.20;;;;;;5035347;28;20636;-66
2021/03/13 12:39:19;;;;;;;6.15;0.70;;;10.60;58.20;;;;;;5036074;28;20532;-65
2021/03/13 12:41:45;;;;;;;6.78;1.20;;;10.60;58.20;;;;;;5055135;28;20469;-64
2021/03/13 12:44:11;;;;;;;3.35;0.73;;;10.60;57.90;;;;;;5053862;28;20075;-66
2021/03/13 12:46:38;;;;;;;1.30;0.80;;;10.70;58.10;;;;;;5047316;28;20052;-65
2021/03/13 12:49:04;;;;;;;4.30;1.15;;;10.70;58.00;;;;;;5053661;28;20439;-66
2021/03/13 12:51:30;;;;;;;2.47;1.83;;;10.80;57.30;;;;;;5054806;28;20069;-65
2021/03/13 12:53:55;;;;;;;0.80;0.50;;;10.80;57.30;;;;;;5054076;28;20063;-66
2021/03/13 12:56:21;;;;;;;5.85;2.95;;;10.80;57.30;;;;;;5055142;28;20071;-66
2021/03/13 12:58:47;;;;;;;1.27;0.60;;;10.90;57.30;;;;;;5051186;28;20024;-66
2021/03/13 13:01:12;;;;;;;0.68;0.40;;;10.90;57.50;;;;;;5036267;28;20029;-66
2021/03/13 13:03:38;;;;;;;0.80;0.40;;;10.90;58.20;;;;;;5042919;28;20135;-65